createdAt,value
2018-08-17T00:01:15.886Z,4.73
2018-08-17T00:03:44.968Z,4.50
2018-08-17T00:06:13.623Z,4.07
2018-08-17T00:08:42.304Z,4.80
2018-08-17T00:11:10.830Z,5.13
2018-08-17T00:13:39.458Z,5.00
2018-08-17T00:16:08.079Z,5.27
2018-08-17T00:18:37.433Z,5.80
2018-08-17T00:21:06.025Z,5.70
2018-08-17T00:23:35.110Z,4.87
2018-08-17T00:26:03.784Z,4.60
2018-08-17T00:28:32.389Z,5.70
2018-08-17T00:31:01.057Z,6.10
2018-08-17T00:33:29.636Z,6.23
2018-08-17T00:35:58.393Z,6.00
2018-08-17T00:38:26.972Z,5.20
2018-08-17T00:40:55.590Z,5.80
2018-08-17T00:43:24.276Z,5.00
2018-08-17T00:45:52.878Z,4.57
2018-08-17T00:48:21.800Z,4.63
2018-08-17T00:50:50.388Z,4.80
2018-08-17T00:53:18.961Z,4.70
2018-08-17T00:55:47.599Z,5.73
2018-08-17T00:58:16.930Z,6.03
2018-08-17T01:00:45.484Z,5.27
2018-08-17T01:03:13.990Z,5.40
2018-08-17T01:05:42.564Z,6.00
2018-08-17T01:08:11.122Z,6.17
2018-08-17T01:10:39.838Z,6.10
2018-08-17T01:13:13.070Z,5.57
2018-08-17T01:15:42.023Z,6.10
2018-08-17T01:18:11.951Z,6.40
2018-08-17T01:20:40.619Z,6.67
2018-08-17T01:23:09.586Z,6.57
2018-08-17T01:25:38.571Z,6.60
2018-08-17T01:28:08.399Z,6.77
2018-08-17T01:30:37.325Z,7.10
2018-08-17T01:33:06.466Z,6.53
2018-08-17T01:35:35.176Z,6.87
2018-08-17T01:38:03.789Z,6.87
2018-08-17T01:40:32.615Z,7.50
2018-08-17T01:43:01.185Z,7.97
2018-08-17T01:45:30.297Z,7.37
2018-08-17T01:47:59.182Z,7.00
2018-08-17T01:50:27.743Z,7.40
2018-08-17T01:52:56.741Z,8.07
2018-08-17T01:55:25.987Z,8.37
2018-08-17T01:57:54.536Z,8.00
2018-08-17T02:00:23.111Z,8.33
2018-08-17T02:02:51.686Z,7.60
2018-08-17T02:05:20.359Z,8.10
2018-08-17T02:07:49.077Z,8.53
2018-08-17T02:10:17.663Z,7.00
2018-08-17T02:12:46.330Z,8.67
2018-08-17T02:15:15.204Z,7.73
2018-08-17T02:17:43.750Z,7.80
2018-08-17T02:20:12.410Z,7.50
2018-08-17T02:22:40.950Z,7.40
2018-08-17T02:25:09.528Z,7.00
2018-08-17T02:27:38.100Z,8.03
2018-08-17T02:30:07.513Z,7.10
2018-08-17T02:32:36.181Z,7.07
2018-08-17T02:35:06.343Z,6.93
2018-08-17T02:37:34.916Z,8.40
2018-08-17T02:40:03.773Z,7.07
2018-08-17T02:42:32.305Z,8.83
2018-08-17T02:45:00.903Z,7.00
2018-08-17T02:47:29.741Z,7.90
2018-08-17T02:49:58.496Z,6.80
2018-08-17T02:52:27.044Z,7.20
2018-08-17T02:54:55.861Z,7.10
2018-08-17T02:57:24.913Z,7.00
2018-08-17T02:59:53.487Z,7.30
2018-08-17T03:02:22.096Z,7.47
2018-08-17T03:04:50.903Z,8.57
2018-08-17T03:07:19.463Z,8.50
2018-08-17T03:09:48.240Z,9.13
2018-08-17T03:12:16.894Z,8.50
2018-08-17T03:14:45.619Z,9.20
2018-08-17T03:17:14.278Z,7.53
2018-08-17T03:19:42.971Z,8.70
2018-08-17T03:22:11.851Z,7.97
2018-08-17T03:24:40.790Z,8.00
2018-08-17T03:27:09.385Z,7.13
2018-08-17T03:29:38.335Z,7.30
2018-08-17T03:32:07.720Z,7.40
2018-08-17T03:34:37.396Z,8.37
2018-08-17T03:37:06.499Z,7.67
2018-08-17T03:39:34.977Z,7.20
2018-08-17T03:42:03.619Z,7.53
2018-08-17T03:44:32.190Z,6.80
2018-08-17T03:47:00.763Z,7.90
2018-08-17T03:49:29.280Z,7.47
2018-08-17T03:51:57.958Z,7.17
2018-08-17T03:54:26.544Z,6.27
2018-08-17T03:56:55.122Z,7.20
2018-08-17T03:59:23.648Z,6.30
2018-08-17T04:01:52.737Z,7.33
2018-08-17T04:04:21.272Z,8.50
2018-08-17T04:06:49.786Z,7.50
2018-08-17T04:09:18.390Z,7.50
2018-08-17T04:11:47.028Z,7.23
2018-08-17T04:14:15.592Z,6.30
2018-08-17T04:16:44.150Z,6.40
2018-08-17T04:19:12.775Z,6.70
2018-08-17T04:21:41.373Z,7.30
2018-08-17T04:24:10.035Z,8.00
2018-08-17T04:26:38.681Z,7.60
2018-08-17T04:29:07.273Z,7.27
2018-08-17T04:31:36.600Z,9.40
2018-08-17T04:34:05.488Z,8.67
2018-08-17T04:36:34.044Z,8.50
2018-08-17T04:39:03.014Z,9.40
2018-08-17T04:41:31.578Z,7.73
2018-08-17T04:44:00.260Z,8.23
2018-08-17T04:46:29.172Z,8.67
2018-08-17T04:48:57.768Z,7.87
2018-08-17T04:51:26.514Z,6.90
2018-08-17T04:53:55.412Z,5.87
2018-08-17T04:56:24.222Z,7.30
2018-08-17T04:58:52.822Z,7.00
2018-08-17T05:01:21.556Z,7.00
2018-08-17T05:03:50.124Z,6.77
2018-08-17T05:06:18.860Z,6.27
2018-08-17T05:08:47.643Z,6.87
2018-08-17T05:11:16.457Z,7.33
2018-08-17T05:13:45.006Z,7.47
2018-08-17T05:16:13.959Z,8.00
2018-08-17T05:18:42.677Z,6.90
2018-08-17T05:21:11.279Z,6.77
2018-08-17T05:23:40.751Z,6.73
2018-08-17T05:26:09.548Z,6.77
2018-08-17T05:28:38.419Z,6.97
2018-08-17T05:31:07.385Z,7.40
2018-08-17T05:33:35.963Z,7.20
2018-08-17T05:36:04.656Z,7.10
2018-08-17T05:38:33.203Z,6.73
2018-08-17T05:41:01.793Z,6.93
2018-08-17T05:43:31.855Z,7.00
2018-08-17T05:46:00.515Z,6.10
2018-08-17T05:48:29.125Z,6.50
2018-08-17T05:50:57.797Z,6.03
2018-08-17T05:53:26.720Z,5.90
2018-08-17T05:55:55.254Z,6.17
2018-08-17T05:58:24.174Z,6.47
2018-08-17T06:00:52.831Z,5.80
2018-08-17T06:03:21.459Z,6.70
2018-08-17T06:05:50.065Z,6.50
2018-08-17T06:08:19.691Z,5.70
2018-08-17T06:10:48.346Z,5.67
2018-08-17T06:13:17.031Z,6.30
2018-08-17T06:15:45.867Z,5.53
2018-08-17T06:18:14.899Z,6.30
2018-08-17T06:20:43.651Z,6.43
2018-08-17T06:23:12.447Z,5.60
2018-08-17T06:25:41.402Z,4.87
2018-08-17T06:28:10.160Z,6.17
2018-08-17T06:30:38.799Z,5.93
2018-08-17T06:33:07.432Z,5.70
2018-08-17T06:35:36.118Z,5.60
2018-08-17T06:38:04.882Z,4.90
2018-08-17T06:40:33.950Z,4.60
2018-08-17T06:43:02.558Z,4.80
2018-08-17T06:45:31.412Z,4.33
2018-08-17T06:48:00.186Z,4.50
2018-08-17T06:50:29.159Z,4.70
2018-08-17T06:52:57.763Z,4.70
2018-08-17T06:55:27.325Z,4.70
2018-08-17T06:57:56.192Z,4.60
2018-08-17T07:00:25.297Z,4.20
2018-08-17T07:02:53.921Z,5.30
2018-08-17T07:05:22.742Z,4.10
2018-08-17T07:07:51.640Z,4.63
2018-08-17T07:10:21.960Z,5.00
2018-08-17T07:12:50.662Z,4.67
2018-08-17T07:15:19.291Z,4.20
2018-08-17T07:17:48.055Z,4.20
2018-08-17T07:20:18.618Z,5.10
2018-08-17T07:22:47.226Z,4.30
2018-08-17T07:25:16.130Z,5.30
2018-08-17T07:27:44.892Z,4.90
2018-08-17T07:30:13.886Z,5.87
2018-08-17T07:32:42.436Z,6.43
2018-08-17T07:35:12.160Z,6.13
2018-08-17T07:37:40.826Z,6.23
2018-08-17T07:40:09.895Z,5.80
2018-08-17T07:42:38.858Z,5.10
2018-08-17T07:45:08.786Z,4.00
2018-08-17T07:47:37.782Z,4.17
2018-08-17T07:50:06.393Z,3.73
2018-08-17T07:52:35.451Z,3.30
2018-08-17T07:55:04.249Z,4.00
2018-08-17T07:57:32.825Z,3.13
2018-08-17T08:00:01.979Z,2.60
2018-08-17T08:02:30.633Z,2.40
2018-08-17T08:04:59.283Z,1.80
2018-08-17T08:07:28.181Z,1.97
2018-08-17T08:09:56.970Z,1.83
2018-08-17T08:12:25.600Z,1.97
2018-08-17T08:14:54.357Z,1.90
2018-08-17T08:17:23.722Z,1.90
2018-08-17T08:20:03.583Z,2.17
2018-08-17T08:22:32.131Z,2.10
2018-08-17T08:25:00.662Z,2.00
2018-08-17T08:27:30.245Z,1.70
2018-08-17T08:29:59.431Z,2.10
2018-08-17T08:32:28.282Z,1.80
2018-08-17T08:34:56.832Z,1.97
2018-08-17T08:37:26.285Z,1.80
2018-08-17T08:39:54.980Z,1.60
2018-08-17T08:42:23.576Z,1.60
2018-08-17T08:44:52.398Z,1.50
2018-08-17T08:47:23.407Z,1.90
2018-08-17T08:49:53.183Z,1.50
2018-08-17T08:52:22.333Z,1.60
2018-08-17T08:54:52.403Z,1.40
2018-08-17T08:57:21.185Z,1.70
2018-08-17T08:59:52.033Z,1.47
2018-08-17T09:02:21.280Z,1.70
2018-08-17T09:04:50.070Z,1.63
2018-08-17T09:07:18.931Z,1.53
2018-08-17T09:09:47.707Z,1.50
2018-08-17T09:12:16.600Z,1.47
2018-08-17T09:14:45.160Z,1.67
2018-08-17T09:17:14.303Z,1.50
2018-08-17T09:19:43.168Z,1.40
2018-08-17T09:22:11.803Z,1.50
2018-08-17T09:24:40.610Z,1.50
2018-08-17T09:27:09.641Z,1.50
2018-08-17T09:29:38.603Z,1.40
2018-08-17T09:32:07.253Z,1.30
2018-08-17T09:34:36.113Z,1.47
2018-08-17T09:37:04.682Z,1.40
2018-08-17T09:39:33.465Z,1.40
2018-08-17T09:42:02.324Z,1.50
2018-08-17T09:44:30.936Z,1.50
2018-08-17T09:46:59.841Z,1.50
2018-08-17T09:49:28.822Z,1.50
2018-08-17T09:51:58.763Z,1.57
2018-08-17T09:54:27.623Z,1.40
2018-08-17T09:56:57.372Z,1.80
2018-08-17T09:59:26.297Z,1.30
2018-08-17T10:02:00.512Z,1.40
2018-08-17T10:04:35.137Z,1.27
2018-08-17T10:07:09.092Z,1.47
2018-08-17T10:09:43.125Z,1.47
2018-08-17T10:12:12.662Z,1.27
2018-08-17T10:14:41.521Z,1.50
2018-08-17T10:17:10.257Z,1.20
2018-08-17T10:19:39.409Z,1.37
2018-08-17T10:22:08.544Z,1.50
2018-08-17T10:24:37.943Z,1.10
2018-08-17T10:27:06.883Z,1.43
2018-08-17T10:29:36.183Z,1.57
2018-08-17T10:32:05.718Z,1.50
2018-08-17T10:34:34.439Z,1.57
2018-08-17T10:37:03.578Z,1.40
2018-08-17T10:39:32.463Z,1.67
2018-08-17T10:42:01.873Z,1.47
2018-08-17T10:44:30.565Z,1.40
2018-08-17T10:46:59.673Z,1.50
2018-08-17T10:49:28.905Z,1.30
2018-08-17T10:51:58.464Z,1.40
2018-08-17T10:54:27.153Z,1.43
2018-08-17T10:56:56.760Z,1.50
2018-08-17T10:59:25.485Z,1.30
2018-08-17T11:01:54.468Z,1.50
2018-08-17T11:04:23.052Z,1.53
2018-08-17T11:06:51.853Z,1.70
2018-08-17T11:09:21.138Z,1.30
2018-08-17T11:11:50.100Z,1.10
2018-08-17T11:14:19.092Z,1.30
2018-08-17T11:16:48.120Z,1.30
2018-08-17T11:19:17.079Z,1.40
2018-08-17T11:21:46.361Z,1.43
2018-08-17T11:24:15.104Z,1.30
2018-08-17T11:26:43.834Z,1.40
2018-08-17T11:29:13.246Z,1.20
2018-08-17T11:31:41.936Z,1.20
2018-08-17T11:34:10.695Z,1.17
2018-08-17T11:36:39.373Z,1.30
2018-08-17T11:39:08.834Z,1.00
2018-08-17T11:41:37.545Z,1.50
2018-08-17T11:44:11.265Z,1.00
2018-08-17T11:46:40.360Z,1.20
2018-08-17T11:49:08.977Z,1.23
2018-08-17T11:51:40.167Z,0.97
2018-08-17T11:54:10.955Z,1.10
2018-08-17T11:56:39.911Z,1.10
2018-08-17T11:59:08.848Z,1.10
2018-08-17T12:01:37.829Z,1.27
2018-08-17T12:04:06.478Z,1.20
2018-08-17T12:06:35.111Z,1.10
2018-08-17T12:09:04.085Z,1.10
2018-08-17T12:11:33.150Z,1.30
2018-08-17T12:14:02.481Z,1.20
2018-08-17T12:16:31.080Z,1.20
2018-08-17T12:18:59.864Z,1.07
2018-08-17T12:21:28.701Z,1.07
2018-08-17T12:23:57.343Z,1.10
2018-08-17T12:26:25.975Z,1.13
2018-08-17T12:28:55.025Z,1.10
2018-08-17T12:31:23.632Z,1.20
2018-08-17T12:33:52.266Z,1.00
2018-08-17T12:36:22.249Z,1.03
2018-08-17T12:38:51.798Z,1.00
2018-08-17T12:41:20.743Z,1.37
2018-08-17T12:43:49.426Z,1.20
2018-08-17T12:46:18.892Z,1.53
2018-08-17T12:48:47.863Z,0.97
2018-08-17T12:51:16.548Z,0.97
2018-08-17T12:53:45.388Z,1.30
2018-08-17T12:56:14.093Z,1.27
2018-08-17T12:58:42.856Z,1.00
2018-08-17T13:01:11.752Z,1.10
2018-08-17T13:03:40.334Z,1.10
2018-08-17T13:06:09.125Z,1.00
2018-08-17T13:08:38.700Z,1.10
2018-08-17T13:11:07.575Z,1.20
2018-08-17T13:13:36.226Z,0.90
2018-08-17T13:16:06.450Z,1.10
2018-08-17T13:18:37.127Z,1.23
2018-08-17T13:21:06.596Z,1.30
2018-08-17T13:23:35.446Z,1.00
2018-08-17T13:26:04.321Z,1.10
2018-08-17T13:28:33.239Z,1.30
2018-08-17T13:31:02.138Z,1.50
2018-08-17T13:33:31.552Z,1.20
2018-08-17T13:36:00.888Z,1.13
2018-08-17T13:38:29.895Z,0.97
2018-08-17T13:40:58.707Z,1.03
2018-08-17T13:43:27.456Z,1.10
2018-08-17T13:45:56.680Z,1.20
2018-08-17T13:48:25.258Z,1.10
2018-08-17T13:50:54.648Z,1.17
2018-08-17T13:53:23.228Z,1.10
2018-08-17T13:55:51.917Z,1.23
2018-08-17T13:58:20.648Z,1.00
2018-08-17T14:00:49.501Z,0.90
2018-08-17T14:03:18.318Z,1.20
2018-08-17T14:05:47.101Z,1.00
2018-08-17T14:08:16.129Z,1.00
2018-08-17T14:10:44.857Z,0.98
2018-08-17T14:13:13.552Z,0.97
2018-08-17T14:15:42.651Z,1.20
2018-08-17T14:18:11.919Z,1.47
2018-08-17T14:20:40.595Z,1.20
2018-08-17T14:23:09.560Z,1.30
2018-08-17T14:25:38.707Z,1.20
2018-08-17T14:28:07.472Z,1.00
2018-08-17T14:30:36.104Z,1.00
2018-08-17T14:33:04.838Z,1.10
2018-08-17T14:35:33.491Z,1.03
2018-08-17T14:38:02.624Z,1.07
2018-08-17T14:40:31.484Z,1.00
2018-08-17T14:43:00.279Z,1.10
2018-08-17T14:45:30.120Z,1.00
2018-08-17T14:47:58.922Z,1.00
2018-08-17T14:50:27.577Z,0.90
2018-08-17T14:52:56.397Z,1.13
2018-08-17T14:55:25.801Z,0.80
2018-08-17T14:57:54.460Z,0.90
2018-08-17T15:00:23.053Z,1.00
2018-08-17T15:02:52.263Z,1.00
2018-08-17T15:05:21.816Z,1.10
2018-08-17T15:07:50.647Z,1.10
2018-08-17T15:10:19.959Z,0.80
2018-08-17T15:12:48.695Z,1.00
2018-08-17T15:15:17.270Z,1.20
2018-08-17T15:17:45.933Z,1.20
2018-08-17T15:20:14.723Z,1.23
2018-08-17T15:22:43.630Z,1.30
2018-08-17T15:25:12.375Z,1.33
2018-08-17T15:27:41.358Z,1.30
2018-08-17T15:30:11.863Z,1.20
2018-08-17T15:32:41.663Z,1.37
2018-08-17T15:35:11.091Z,1.10
2018-08-17T15:37:40.080Z,1.00
2018-08-17T15:40:10.655Z,1.27
2018-08-17T15:42:39.626Z,1.20
2018-08-17T15:45:08.907Z,1.10
2018-08-17T15:47:37.993Z,1.50
2018-08-17T15:50:12.333Z,1.10
2018-08-17T15:52:40.995Z,1.20
2018-08-17T15:55:09.659Z,1.40
2018-08-17T15:57:38.433Z,1.40
2018-08-17T16:00:08.918Z,1.10
2018-08-17T16:02:38.377Z,1.40
2018-08-17T16:05:07.593Z,1.40
2018-08-17T16:07:36.197Z,1.37
2018-08-17T16:10:05.544Z,1.23
2018-08-17T16:12:34.995Z,1.10
2018-08-17T16:15:03.653Z,1.70
2018-08-17T16:17:32.601Z,1.40
2018-08-17T16:20:01.167Z,1.40
2018-08-17T16:22:30.181Z,1.40
2018-08-17T16:24:59.197Z,1.23
2018-08-17T16:27:28.180Z,1.30
2018-08-17T16:29:57.071Z,1.27
2018-08-17T16:32:26.712Z,1.33
2018-08-17T16:34:55.511Z,1.43
2018-08-17T16:37:24.512Z,1.57
2018-08-17T16:39:53.036Z,1.10
2018-08-17T16:42:27.082Z,1.20
2018-08-17T16:44:56.460Z,1.30
2018-08-17T16:47:25.072Z,1.20
2018-08-17T16:49:53.690Z,1.30
2018-08-17T16:52:22.610Z,1.40
2018-08-17T16:54:51.256Z,1.33
2018-08-17T16:57:20.224Z,1.23
2018-08-17T16:59:49.420Z,1.30
2018-08-17T17:02:18.962Z,1.27
2018-08-17T17:04:47.589Z,1.47
2018-08-17T17:07:16.369Z,1.20
2018-08-17T17:09:45.068Z,1.30
2018-08-17T17:12:18.591Z,1.20
2018-08-17T17:14:47.543Z,1.33
2018-08-17T17:17:16.734Z,1.20
2018-08-17T17:19:45.485Z,1.07
2018-08-17T17:22:14.043Z,1.40
2018-08-17T17:24:42.829Z,1.40
2018-08-17T17:27:11.662Z,1.20
2018-08-17T17:29:40.240Z,1.00
2018-08-17T17:32:10.158Z,1.20
2018-08-17T17:34:38.785Z,1.13
2018-08-17T17:37:07.999Z,1.10
2018-08-17T17:39:36.665Z,1.23
2018-08-17T17:42:05.700Z,1.30
2018-08-17T17:44:34.518Z,1.27
2018-08-17T17:47:03.185Z,1.40
2018-08-17T17:49:31.809Z,1.30
2018-08-17T17:52:00.397Z,1.20
2018-08-17T17:54:29.318Z,1.20
2018-08-17T17:57:14.464Z,1.50
2018-08-17T17:59:48.454Z,1.30
2018-08-17T18:02:17.570Z,1.20
2018-08-17T18:04:46.256Z,1.50
2018-08-17T18:07:14.800Z,1.60
2018-08-17T18:09:43.661Z,1.50
2018-08-17T18:12:12.397Z,1.20
2018-08-17T18:14:41.374Z,1.50
2018-08-17T18:17:10.564Z,1.50
2018-08-17T18:19:39.253Z,1.47
2018-08-17T18:22:14.251Z,1.20
2018-08-17T18:24:42.790Z,1.37
2018-08-17T18:27:11.860Z,1.40
2018-08-17T18:29:40.459Z,1.30
2018-08-17T18:32:09.567Z,1.30
2018-08-17T18:34:38.913Z,1.60
2018-08-17T18:37:07.548Z,1.30
2018-08-17T18:39:36.443Z,1.03
2018-08-17T18:42:05.112Z,1.30
2018-08-17T18:44:33.770Z,1.50
2018-08-17T18:47:02.368Z,1.57
2018-08-17T18:49:31.775Z,1.37
2018-08-17T18:52:00.419Z,1.37
2018-08-17T18:54:29.083Z,1.50
2018-08-17T18:56:57.858Z,1.30
2018-08-17T18:59:26.663Z,1.70
2018-08-17T19:01:55.501Z,1.50
2018-08-17T19:04:24.913Z,1.43
2018-08-17T19:06:53.910Z,1.40
2018-08-17T19:09:22.457Z,1.37
2018-08-17T19:11:51.054Z,1.50
2018-08-17T19:14:19.975Z,1.40
2018-08-17T19:16:48.537Z,1.30
2018-08-17T19:19:17.280Z,1.47
2018-08-17T19:21:45.850Z,1.43
2018-08-17T19:24:14.529Z,1.50
2018-08-17T19:26:43.302Z,1.60
2018-08-17T19:29:11.843Z,1.70
2018-08-17T19:31:47.349Z,1.53
2018-08-17T19:34:16.546Z,1.50
2018-08-17T19:36:45.166Z,1.63
2018-08-17T19:39:20.716Z,1.40
2018-08-17T19:41:49.847Z,1.30
2018-08-17T19:44:18.475Z,1.50
2018-08-17T19:46:47.709Z,1.60
2018-08-17T19:49:16.288Z,2.00
2018-08-17T19:51:44.831Z,1.60
2018-08-17T19:54:14.117Z,1.90
2018-08-17T19:56:42.816Z,1.47
2018-08-17T19:59:11.356Z,1.60
2018-08-17T20:01:40.023Z,1.77
2018-08-17T20:04:08.798Z,1.30
2018-08-17T20:06:37.334Z,1.50
2018-08-17T20:09:08.113Z,1.60
2018-08-17T20:11:37.370Z,1.90
2018-08-17T20:14:06.351Z,1.50
2018-08-17T20:16:35.159Z,1.60
2018-08-17T20:19:03.804Z,1.57
2018-08-17T20:21:32.353Z,1.63
2018-08-17T20:24:01.084Z,1.67
2018-08-17T20:26:29.953Z,1.80
2018-08-17T20:28:58.313Z,1.93
2018-08-17T20:31:27.037Z,2.20
2018-08-17T20:33:55.613Z,1.90
2018-08-17T20:36:24.366Z,1.80
2018-08-17T20:38:53.150Z,2.20
2018-08-17T20:41:22.967Z,2.40
2018-08-17T20:43:51.555Z,2.00
2018-08-17T20:46:21.151Z,1.77
2018-08-17T20:48:51.141Z,2.33
2018-08-17T20:51:26.448Z,1.70
2018-08-17T20:53:57.276Z,1.97
2018-08-17T20:56:26.305Z,1.93
2018-08-17T20:58:55.064Z,2.10
2018-08-17T21:01:24.133Z,2.00
2018-08-17T21:03:53.286Z,2.17
2018-08-17T21:06:22.234Z,2.13
2018-08-17T21:08:50.848Z,2.00
2018-08-17T21:11:19.495Z,2.10
2018-08-17T21:13:48.358Z,1.80
2018-08-17T21:16:16.928Z,2.37
2018-08-17T21:18:45.797Z,2.20
2018-08-17T21:21:14.348Z,2.00
2018-08-17T21:23:42.909Z,2.33
2018-08-17T21:26:11.890Z,2.23
2018-08-17T21:28:40.773Z,2.10
2018-08-17T21:31:09.388Z,2.27
2018-08-17T21:33:38.705Z,2.07
2018-08-17T21:36:07.360Z,1.90
2018-08-17T21:38:35.885Z,1.70
2018-08-17T21:41:04.497Z,1.90
2018-08-17T21:43:33.170Z,2.30
2018-08-17T21:46:04.291Z,2.30
2018-08-17T21:48:33.684Z,2.00
2018-08-17T21:51:02.788Z,2.47
2018-08-17T21:53:31.417Z,2.20
2018-08-17T21:56:00.245Z,2.30
2018-08-17T21:58:29.129Z,2.03
2018-08-17T22:00:57.743Z,2.07
2018-08-17T22:03:35.639Z,2.43
2018-08-17T22:06:04.447Z,2.10
2018-08-17T22:08:33.104Z,2.13
2018-08-17T22:11:02.209Z,2.20
2018-08-17T22:13:33.148Z,2.40
2018-08-17T22:16:03.235Z,2.50
2018-08-17T22:18:32.314Z,2.30
2018-08-17T22:21:01.195Z,2.30
2018-08-17T22:23:31.110Z,2.37
2018-08-17T22:25:59.796Z,2.83
2018-08-17T22:28:28.368Z,2.73
2018-08-17T22:30:56.938Z,2.80
2018-08-17T22:33:25.678Z,2.53
2018-08-17T22:35:54.544Z,2.80
2018-08-17T22:38:23.805Z,2.40
2018-08-17T22:40:52.422Z,3.03
2018-08-17T22:43:21.101Z,2.90
2018-08-17T22:45:50.585Z,3.00
2018-08-17T22:48:19.197Z,3.00
2018-08-17T22:50:47.740Z,2.90
2018-08-17T22:53:16.313Z,3.13
2018-08-17T22:55:44.862Z,3.10
2018-08-17T22:58:14.072Z,3.37
2018-08-17T23:00:43.919Z,3.77
2018-08-17T23:03:12.914Z,3.30
2018-08-17T23:05:42.289Z,3.50
2018-08-17T23:08:11.385Z,3.50
2018-08-17T23:10:40.187Z,4.10
2018-08-17T23:13:09.015Z,3.70
2018-08-17T23:15:37.766Z,3.73
2018-08-17T23:18:06.562Z,3.90
2018-08-17T23:20:37.059Z,3.43
2018-08-17T23:23:06.818Z,3.30
2018-08-17T23:25:35.677Z,4.00
2018-08-17T23:28:04.560Z,3.77
2018-08-17T23:30:33.258Z,3.87
2018-08-17T23:33:02.070Z,3.60
2018-08-17T23:35:30.982Z,4.00
2018-08-17T23:37:59.586Z,3.77
2018-08-17T23:40:28.159Z,3.97
2018-08-17T23:42:56.903Z,4.40
2018-08-17T23:45:25.543Z,3.83
2018-08-17T23:47:54.856Z,3.67
2018-08-17T23:50:24.300Z,4.13
2018-08-17T23:52:53.326Z,4.30
2018-08-17T23:55:23.618Z,4.00
2018-08-17T23:57:52.455Z,3.70
